Airport View

Enter AWOS ICAO identifier for current METAR.

ex. KFNL

KEIK 251255Z AUTO 13003KT 10SM CLR 12/01 A2999 RMK AO2 T01190011

25 Sep 2020 13:02

Frequency: 133.825

Phone: 303-604-4339

Other Area AWOS: KBJC - KBDU - KLMO - KDEN

TAF KBJC 251121Z 2512/2612 25005KT P6SM SCT140 FM251300 VRB05KT P6SM SCT140 FM251900 15009KT P6SM FEW220 FM252200 29013G20KT P6SM FEW220 FM260200 26006KT P6SM FEW220 FM260700 17009KT P6SM FEW220